Time;durP1;ratioP1;P1;durP2;ratioP2;P2;SDS_P1;SDS_P2;PMS_P1;PMS_P2;Temp;Humidity;BMP_temperature;BMP_pressure;BME280_temperature;BME280_humidity;BME280_pressure;Samples;Min_cycle;Max_cycle;Signal;HPM_P1;HPM_P2
2022/09/23 00:00:34;;;;;;;29.15;26.55;;;9.60;99.90;;;;;;6007232;23;20016;-88
2022/09/23 00:03:00;;;;;;;28.35;25.85;;;9.60;99.90;;;;;;6007638;23;20020;-88
2022/09/23 00:05:26;;;;;;;27.17;24.70;;;9.60;99.90;;;;;;6006315;23;20019;-88
2022/09/23 00:07:53;;;;;;;27.60;25.20;;;9.60;99.90;;;;;;6005522;23;20011;-87
2022/09/23 00:10:20;;;;;;;28.10;25.60;;;9.60;99.90;;;;;;6007604;23;20051;-89
2022/09/23 00:12:45;;;;;;;28.85;26.25;;;9.60;99.90;;;;;;6005615;23;20411;-87
2022/09/23 00:15:11;;;;;;;28.13;25.60;;;9.60;99.90;;;;;;6006715;23;20012;-88
2022/09/23 00:17:37;;;;;;;27.83;25.40;;;9.50;99.90;;;;;;6006499;23;20023;-88
2022/09/23 00:20:03;;;;;;;28.05;25.63;;;9.50;99.90;;;;;;6005514;23;20019;-88
2022/09/23 00:22:28;;;;;;;28.35;25.88;;;9.50;99.90;;;;;;6005621;23;20020;-88
2022/09/23 00:24:54;;;;;;;27.45;25.05;;;9.50;99.90;;;;;;6006119;23;20022;-88
2022/09/23 00:27:20;;;;;;;27.08;24.58;;;9.50;99.90;;;;;;6007089;23;20532;-88
2022/09/23 00:29:46;;;;;;;27.02;24.65;;;9.50;99.90;;;;;;6006269;23;20020;-88
2022/09/23 00:32:12;;;;;;;27.35;24.88;;;9.40;99.90;;;;;;6006400;23;20016;-88
2022/09/23 00:34:38;;;;;;;27.02;24.63;;;9.50;99.90;;;;;;6005353;23;20086;-88
2022/09/23 00:37:04;;;;;;;26.52;24.20;;;9.50;99.90;;;;;;6007371;23;20156;-88
2022/09/23 00:39:30;;;;;;;27.92;25.40;;;9.50;99.90;;;;;;6005566;23;20022;-88
2022/09/23 00:41:55;;;;;;;26.15;23.75;;;9.40;99.90;;;;;;6004851;23;20090;-88
2022/09/23 00:44:43;;;;;;;27.55;25.05;;;9.40;99.90;;;;;;6006323;23;20023;-88
2022/09/23 00:47:15;;;;;;;26.90;24.60;;;9.40;99.90;;;;;;6005380;23;20437;-88
2022/09/23 00:49:43;;;;;;;25.33;22.92;;;9.40;99.90;;;;;;6006740;23;20022;-87
2022/09/23 00:52:13;;;;;;;25.83;23.52;;;9.40;99.90;;;;;;6005865;23;20016;-88
2022/09/23 00:54:40;;;;;;;20.92;18.08;;;9.40;99.90;;;;;;6007055;23;20064;-88
2022/09/23 00:57:06;;;;;;;27.00;24.60;;;9.30;99.90;;;;;;6005174;23;20094;-88
2022/09/23 00:59:33;;;;;;;26.90;24.50;;;9.30;99.90;;;;;;6004679;23;20020;-88
2022/09/23 01:01:59;;;;;;;26.60;24.20;;;9.40;99.90;;;;;;6005403;23;20120;-88
2022/09/23 01:04:27;;;;;;;26.48;24.00;;;9.40;99.90;;;;;;6007662;23;20393;-89
2022/09/23 01:06:53;;;;;;;26.92;24.52;;;9.40;99.90;;;;;;6005555;23;20035;-88
2022/09/23 01:09:20;;;;;;;25.70;23.40;;;9.40;99.90;;;;;;5982149;23;20023;-88
2022/09/23 01:12:18;;;;;;;26.95;24.45;;;9.40;99.90;;;;;;6006422;23;20077;-88
2022/09/23 01:15:09;;;;;;;28.30;25.80;;;9.40;99.90;;;;;;6006165;23;20088;-89
2022/09/23 01:17:44;;;;;;;21.15;18.65;;;9.30;99.90;;;;;;6001131;23;20023;-88
2022/09/23 01:20:27;;;;;;;26.25;23.95;;;9.30;99.90;;;;;;6005771;23;20020;-88
2022/09/23 01:23:17;;;;;;;26.85;24.45;;;9.30;99.90;;;;;;6005089;23;20011;-88
2022/09/23 01:26:15;;;;;;;21.20;18.58;;;9.30;99.90;;;;;;6004803;23;20020;-88
2022/09/23 01:29:18;;;;;;;25.80;23.63;;;9.30;99.90;;;;;;6005154;23;20042;-88
2022/09/23 01:31:47;;;;;;;27.33;25.02;;;9.30;99.90;;;;;;6006812;23;20045;-89
2022/09/23 01:34:42;;;;;;;27.40;25.10;;;9.30;99.90;;;;;;6005069;23;20016;-88
2022/09/23 01:37:17;;;;;;;28.27;25.58;;;9.30;99.90;;;;;;6005370;23;20027;-88
2022/09/23 01:40:02;;;;;;;27.13;24.83;;;9.30;99.90;;;;;;6006592;23;20045;-88
2022/09/23 01:42:39;;;;;;;28.38;26.00;;;9.30;99.90;;;;;;6005686;23;20016;-87
2022/09/23 01:45:34;;;;;;;28.77;26.15;;;9.30;99.90;;;;;;6004850;23;20043;-89
2022/09/23 01:48:17;;;;;;;27.98;25.58;;;9.20;99.90;;;;;;6007094;23;20042;-88
2022/09/23 01:50:56;;;;;;;29.83;27.23;;;9.20;99.90;;;;;;6004566;23;20106;-88
2022/09/23 01:53:42;;;;;;;30.67;27.98;;;9.20;99.90;;;;;;6006301;23;20018;-89
2022/09/23 01:56:24;;;;;;;20.98;18.73;;;9.30;99.90;;;;;;6004416;23;20019;-88
2022/09/23 01:58:53;;;;;;;29.27;26.77;;;9.20;99.90;;;;;;6005421;23;20351;-88
2022/09/23 02:01:28;;;;;;;28.48;26.02;;;9.20;99.90;;;;;;6004435;23;20450;-88
2022/09/23 02:04:19;;;;;;;28.05;25.65;;;9.20;99.90;;;;;;6003820;23;20096;-88
2022/09/23 02:06:53;;;;;;;23.65;19.38;;;9.20;99.90;;;;;;6005883;23;20453;-88
2022/09/23 02:09:24;;;;;;;29.23;26.63;;;9.10;99.90;;;;;;6006163;23;20020;-89
2022/09/23 02:11:52;;;;;;;29.90;27.40;;;9.20;99.90;;;;;;6005701;23;20326;-87
2022/09/23 02:14:24;;;;;;;29.98;27.58;;;9.20;99.90;;;;;;6006777;23;20016;-89
2022/09/23 02:16:56;;;;;;;29.30;26.67;;;9.20;99.90;;;;;;6004806;23;20076;-89
2022/09/23 02:19:37;;;;;;;30.58;27.95;;;9.20;99.90;;;;;;6005378;23;20019;-89
2022/09/23 02:22:10;;;;;;;29.35;26.83;;;9.20;99.90;;;;;;6006999;23;20012;-88
2022/09/23 02:24:38;;;;;;;22.25;19.85;;;9.20;99.90;;;;;;6006614;23;20050;-88
2022/09/23 02:27:06;;;;;;;28.95;26.45;;;9.10;99.90;;;;;;6005950;23;20450;-88
2022/09/23 02:30:16;;;;;;;28.88;26.48;;;9.10;99.90;;;;;;6004349;23;20058;-88
2022/09/23 02:33:10;;;;;;;29.50;27.00;;;9.20;99.90;;;;;;5973519;23;20022;-88
2022/09/23 02:35:49;;;;;;;22.45;20.17;;;9.10;99.90;;;;;;6001270;23;20015;-88
2022/09/23 02:38:28;;;;;;;28.48;25.95;;;9.00;99.90;;;;;;6004351;23;20023;-89
2022/09/23 02:41:03;;;;;;;28.48;26.08;;;9.00;99.90;;;;;;6005825;23;20030;-88
2022/09/23 02:44:07;;;;;;;29.27;26.77;;;9.10;99.90;;;;;;6004777;23;20022;-88
2022/09/23 02:46:34;;;;;;;28.73;26.42;;;9.00;99.90;;;;;;6004705;23;20250;-89
2022/09/23 02:49:03;;;;;;;28.70;26.27;;;9.00;99.90;;;;;;6004949;23;20395;-88
2022/09/23 02:51:33;;;;;;;29.33;26.73;;;9.00;99.90;;;;;;6005853;23;20080;-88
2022/09/23 02:54:02;;;;;;;22.47;20.10;;;9.00;99.90;;;;;;6006340;23;20019;-88
2022/09/23 02:56:28;;;;;;;29.73;27.13;;;8.90;99.90;;;;;;6004633;23;20240;-88
2022/09/23 02:58:54;;;;;;;30.20;27.73;;;8.90;99.90;;;;;;6006268;23;20383;-88
2022/09/23 03:01:25;;;;;;;29.50;26.92;;;8.90;99.90;;;;;;6005214;23;20019;-88
2022/09/23 03:04:03;;;;;;;;;;;8.80;99.90;;;;;;6004616;23;20035;-88
2022/09/23 03:06:41;;;;;;;30.00;27.40;;;8.70;99.90;;;;;;6004796;23;19949;-88
2022/09/23 03:09:14;;;;;;;21.02;18.80;;;8.70;99.90;;;;;;6006734;23;20047;-88
2022/09/23 03:11:47;;;;;;;22.38;19.95;;;8.70;99.90;;;;;;6006604;23;20075;-88
2022/09/23 03:14:19;;;;;;;28.92;26.58;;;8.60;99.90;;;;;;6007036;23;20327;-88
2022/09/23 03:17:07;;;;;;;31.58;28.88;;;8.60;99.90;;;;;;6007650;23;20079;-88
2022/09/23 03:19:50;;;;;;;31.77;29.08;;;8.60;99.90;;;;;;6005726;23;20012;-88
2022/09/23 03:22:31;;;;;;;23.15;20.63;;;8.60;99.90;;;;;;6006242;23;20083;-88
2022/09/23 03:25:04;;;;;;;23.08;17.85;;;8.50;99.90;;;;;;6008620;23;20008;-87
2022/09/23 03:27:33;;;;;;;30.88;28.20;;;8.50;99.90;;;;;;6006352;23;20015;-88
2022/09/23 03:29:59;;;;;;;24.42;21.83;;;8.50;99.90;;;;;;6007094;23;20095;-88
2022/09/23 03:32:27;;;;;;;31.73;29.02;;;8.50;99.90;;;;;;5982904;23;20055;-88
2022/09/23 03:34:57;;;;;;;24.80;22.23;;;8.50;99.90;;;;;;6008135;23;20022;-87
2022/09/23 03:37:39;;;;;;;24.13;21.67;;;8.40;99.90;;;;;;6006664;23;20015;-87
2022/09/23 03:40:35;;;;;;;31.38;28.77;;;8.40;99.90;;;;;;5983320;23;20094;-88
2022/09/23 03:43:03;;;;;;;22.98;20.13;;;8.40;99.90;;;;;;5998723;23;20015;-88
2022/09/23 03:45:31;;;;;;;20.38;18.25;;;8.30;99.90;;;;;;6006392;23;20382;-88
2022/09/23 03:47:57;;;;;;;31.95;29.17;;;8.30;99.90;;;;;;6006151;23;20096;-88
2022/09/23 03:50:23;;;;;;;25.58;21.33;;;8.30;99.90;;;;;;5982575;23;20631;-88
2022/09/23 03:52:49;;;;;;;31.30;28.70;;;8.20;99.90;;;;;;6005971;23;20346;-88
2022/09/23 03:55:16;;;;;;;31.88;29.13;;;8.30;99.90;;;;;;6008145;23;20016;-87
2022/09/23 03:57:42;;;;;;;33.20;30.42;;;8.30;99.90;;;;;;6006025;23;20335;-88
2022/09/23 04:00:09;;;;;;;23.73;21.15;;;8.30;99.90;;;;;;6006876;23;20026;-88
2022/09/23 04:02:35;;;;;;;31.88;29.17;;;8.20;99.90;;;;;;6004834;23;20335;-88
2022/09/23 04:05:00;;;;;;;23.27;20.70;;;8.30;99.90;;;;;;6005363;23;20028;-87
2022/09/23 04:07:26;;;;;;;31.63;29.02;;;8.20;99.90;;;;;;5982938;23;20046;-89
2022/09/23 04:09:51;;;;;;;25.58;23.08;;;8.20;99.90;;;;;;6006804;23;20696;-88
2022/09/23 04:12:18;;;;;;;31.63;29.00;;;8.10;99.90;;;;;;6008217;23;20016;-89
2022/09/23 04:14:44;;;;;;;31.92;29.20;;;8.20;99.90;;;;;;6005719;23;20041;-88
2022/09/23 04:17:11;;;;;;;26.05;19.15;;;8.20;99.90;;;;;;6007376;23;20020;-88
2022/09/23 04:19:37;;;;;;;23.45;20.23;;;8.10;99.90;;;;;;6005329;23;20012;-88
2022/09/23 04:22:03;;;;;;;22.63;19.85;;;8.10;99.90;;;;;;6007664;23;20007;-88
2022/09/23 04:24:29;;;;;;;30.88;28.08;;;8.00;99.90;;;;;;6006145;23;20018;-88
2022/09/23 04:26:55;;;;;;;30.73;28.02;;;8.10;99.90;;;;;;6006256;23;20458;-88
2022/09/23 04:29:22;;;;;;;23.45;20.08;;;8.10;99.90;;;;;;5982207;23;20067;-88
2022/09/23 04:31:48;;;;;;;31.70;28.70;;;8.10;99.90;;;;;;6007196;23;20016;-89
2022/09/23 04:34:17;;;;;;;23.48;20.05;;;8.10;99.90;;;;;;6005489;23;20095;-88
2022/09/23 04:36:44;;;;;;;24.90;17.15;;;8.10;99.90;;;;;;6005976;23;20024;-89
2022/09/23 04:39:10;;;;;;;32.40;29.50;;;8.00;99.90;;;;;;6008196;23;20008;-88
2022/09/23 04:41:35;;;;;;;24.98;22.48;;;8.20;99.90;;;;;;6007004;23;20016;-88
2022/09/23 04:44:01;;;;;;;31.55;28.85;;;8.10;99.90;;;;;;6007147;23;20389;-88
2022/09/23 04:46:27;;;;;;;35.00;32.00;;;8.10;99.90;;;;;;6005450;23;20015;-88
2022/09/23 04:48:53;;;;;;;34.17;31.08;;;8.20;99.90;;;;;;6005143;23;20083;-89
2022/09/23 04:51:20;;;;;;;34.50;31.50;;;8.20;99.90;;;;;;6005770;23;20367;-88
2022/09/23 04:53:48;;;;;;;25.42;19.92;;;8.20;99.90;;;;;;6004666;23;20122;-88
2022/09/23 04:56:17;;;;;;;23.15;17.88;;;8.10;99.90;;;;;;6005039;23;20015;-88
2022/09/23 04:58:44;;;;;;;24.50;21.88;;;8.10;99.90;;;;;;6006902;23;20364;-88
2022/09/23 05:01:25;;;;;;;24.17;21.13;;;8.10;99.90;;;;;;6007756;23;20087;-89
2022/09/23 05:03:55;;;;;;;29.40;26.80;;;8.10;99.90;;;;;;6006956;23;20091;-90
2022/09/23 05:06:21;;;;;;;29.92;27.42;;;8.20;99.90;;;;;;6005196;23;20019;-89
2022/09/23 05:08:52;;;;;;;23.48;21.13;;;8.20;99.90;;;;;;6004475;23;20031;-90
2022/09/23 05:11:18;;;;;;;24.30;18.85;;;8.20;99.90;;;;;;6005632;23;20016;-90
2022/09/23 05:13:48;;;;;;;30.30;27.60;;;8.20;99.90;;;;;;6006479;23;20547;-89
2022/09/23 05:16:14;;;;;;;21.75;19.52;;;8.20;99.90;;;;;;6007358;23;20020;-89
2022/09/23 05:18:41;;;;;;;22.38;19.98;;;8.20;99.90;;;;;;6004953;23;20349;-88
2022/09/23 05:21:09;;;;;;;29.35;26.83;;;8.20;99.90;;;;;;6004572;23;20016;-89
2022/09/23 05:23:35;;;;;;;29.70;27.15;;;8.20;99.90;;;;;;6004389;23;20020;-88
2022/09/23 05:26:06;;;;;;;30.08;27.35;;;8.20;99.90;;;;;;6005457;23;20382;-89
2022/09/23 05:28:33;;;;;;;25.77;19.40;;;8.20;99.90;;;;;;6005822;23;20011;-88
2022/09/23 05:31:06;;;;;;;29.73;27.08;;;8.20;99.90;;;;;;6006499;23;20041;-89
2022/09/23 05:33:33;;;;;;;23.65;19.35;;;8.20;99.90;;;;;;6004156;23;20020;-87
2022/09/23 05:35:59;;;;;;;29.23;26.63;;;8.10;99.90;;;;;;6004769;23;20469;-89
2022/09/23 05:38:26;;;;;;;28.65;26.05;;;8.10;99.90;;;;;;5981132;23;20087;-89
2022/09/23 05:41:09;;;;;;;19.63;16.52;;;8.20;99.90;;;;;;6005512;23;20016;-89
2022/09/23 05:43:35;;;;;;;28.65;25.95;;;8.20;99.90;;;;;;6007308;23;20067;-89
2022/09/23 05:46:11;;;;;;;22.10;18.45;;;8.20;99.90;;;;;;6006890;23;20019;-89
2022/09/23 05:48:38;;;;;;;28.15;25.50;;;8.20;99.90;;;;;;6003198;23;20034;-88
2022/09/23 05:51:11;;;;;;;23.25;19.95;;;8.20;99.90;;;;;;6003282;23;20019;-88
2022/09/23 05:53:38;;;;;;;22.77;17.85;;;8.20;99.90;;;;;;6004747;23;20026;-89
2022/09/23 05:56:05;;;;;;;29.98;27.27;;;8.20;99.90;;;;;;6002755;23;20024;-89
2022/09/23 05:58:31;;;;;;;22.80;20.23;;;8.30;99.90;;;;;;6003546;23;20020;-89
2022/09/23 06:00:57;;;;;;;29.25;26.73;;;8.30;99.90;;;;;;6006157;23;20018;-88
2022/09/23 06:03:24;;;;;;;22.23;19.25;;;8.40;99.90;;;;;;6005467;23;20034;-89
2022/09/23 06:05:54;;;;;;;23.05;20.35;;;8.40;99.90;;;;;;6006417;23;20027;-89
2022/09/23 06:08:20;;;;;;;29.77;26.95;;;8.40;99.90;;;;;;6004555;23;20019;-89
2022/09/23 06:10:47;;;;;;;26.92;19.60;;;8.50;99.90;;;;;;6005093;23;20062;-89
2022/09/23 06:13:12;;;;;;;22.85;20.10;;;8.50;99.90;;;;;;6004530;23;20385;-89
2022/09/23 06:15:38;;;;;;;23.00;20.48;;;8.60;99.90;;;;;;6004248;23;20015;-90
2022/09/23 06:18:05;;;;;;;28.52;26.10;;;8.60;99.90;;;;;;6005914;23;20023;-91
2022/09/23 06:20:32;;;;;;;26.77;24.25;;;8.70;99.90;;;;;;6006735;23;20090;-89
2022/09/23 06:23:06;;;;;;;25.77;23.48;;;8.90;99.90;;;;;;6005246;23;20020;-89
2022/09/23 06:25:32;;;;;;;25.15;22.90;;;9.00;99.90;;;;;;6004344;23;20471;-88
2022/09/23 06:27:58;;;;;;;21.23;18.80;;;9.10;99.90;;;;;;6002069;23;20023;-88
2022/09/23 06:30:25;;;;;;;20.40;17.88;;;9.10;99.90;;;;;;6004253;23;20091;-90
2022/09/23 06:32:52;;;;;;;22.85;20.83;;;9.20;99.90;;;;;;6004289;23;20058;-89
2022/09/23 06:35:19;;;;;;;22.35;20.25;;;9.30;99.90;;;;;;6004727;23;20072;-90
2022/09/23 06:37:45;;;;;;;22.02;19.90;;;9.50;99.90;;;;;;6004346;23;20023;-90
2022/09/23 06:40:13;;;;;;;22.85;20.45;;;9.60;99.90;;;;;;6006657;23;20272;-89
2022/09/23 06:42:39;;;;;;;21.00;18.92;;;9.70;99.90;;;;;;6008291;23;20014;-90
2022/09/23 06:45:05;;;;;;;21.38;19.48;;;9.70;99.90;;;;;;6004367;23;20015;-91
2022/09/23 06:47:31;;;;;;;20.33;18.33;;;9.80;99.90;;;;;;6006470;23;20015;-90
2022/09/23 06:49:56;;;;;;;21.70;19.58;;;9.90;99.90;;;;;;6007600;23;20379;-91
2022/09/23 06:52:22;;;;;;;20.55;18.65;;;10.00;99.90;;;;;;6006890;23;20020;-90
2022/09/23 06:54:47;;;;;;;19.60;17.70;;;10.00;99.90;;;;;;6007023;23;20019;-90
2022/09/23 06:57:13;;;;;;;19.95;17.98;;;10.10;99.90;;;;;;6005656;23;20075;-91
2022/09/23 06:59:40;;;;;;;19.83;17.60;;;10.10;99.90;;;;;;6004786;23;20022;-90
2022/09/23 07:02:08;;;;;;;20.27;18.27;;;10.20;99.90;;;;;;6005039;23;20023;-91
2022/09/23 07:04:33;;;;;;;19.58;17.58;;;10.20;99.90;;;;;;6006401;23;20027;-90
2022/09/23 07:06:59;;;;;;;19.83;17.92;;;10.30;99.90;;;;;;6007972;23;20011;-91
2022/09/23 07:09:25;;;;;;;20.92;18.88;;;10.30;99.90;;;;;;6008698;23;20008;-91
2022/09/23 07:11:51;;;;;;;20.35;18.38;;;10.40;99.90;;;;;;6007347;23;20027;-91
2022/09/23 07:14:17;;;;;;;18.50;16.70;;;10.50;99.90;;;;;;6006062;23;20407;-91
2022/09/23 07:16:43;;;;;;;19.17;17.27;;;10.60;99.90;;;;;;6008297;23;20039;-92
2022/09/23 07:19:09;;;;;;;18.15;16.35;;;10.60;99.90;;;;;;5981977;23;20022;-92
2022/09/23 07:21:36;;;;;;;18.55;16.55;;;10.60;99.90;;;;;;5982320;23;20047;-92
2022/09/23 07:24:02;;;;;;;18.17;16.38;;;10.70;99.90;;;;;;5983188;23;20008;-92
2022/09/23 07:26:28;;;;;;;17.77;15.93;;;10.80;99.90;;;;;;6006479;23;20038;-92
2022/09/23 07:28:55;;;;;;;17.10;15.38;;;10.80;99.90;;;;;;6005837;23;20449;-92
2022/09/23 07:31:21;;;;;;;17.58;15.77;;;10.90;99.90;;;;;;6008894;23;20334;-92
2022/09/23 07:33:47;;;;;;;17.90;16.05;;;10.90;99.90;;;;;;6006491;23;20166;-92
2022/09/23 07:36:16;;;;;;;17.55;15.75;;;11.00;99.90;;;;;;6004634;23;20489;-91
2022/09/23 07:38:43;;;;;;;18.48;16.38;;;11.00;99.90;;;;;;5979516;23;20111;-93
2022/09/23 07:41:12;;;;;;;22.38;17.02;;;11.00;99.90;;;;;;5980343;23;20018;-90
2022/09/23 07:43:39;;;;;;;17.10;15.30;;;11.10;99.90;;;;;;6005071;23;20019;-90
2022/09/23 07:46:08;;;;;;;18.73;15.57;;;11.20;99.90;;;;;;5983284;23;20019;-93
2022/09/23 07:48:34;;;;;;;16.83;15.13;;;11.20;99.90;;;;;;6006034;23;20945;-89
2022/09/23 07:51:09;;;;;;;16.95;15.27;;;11.20;99.90;;;;;;6006186;23;20016;-90
2022/09/23 07:53:35;;;;;;;18.35;16.65;;;11.30;99.90;;;;;;6005632;23;20023;-91
2022/09/23 07:56:03;;;;;;;17.90;15.88;;;11.40;99.90;;;;;;5981975;23;20048;-92
2022/09/23 07:58:29;;;;;;;16.38;14.82;;;11.40;99.90;;;;;;6006984;23;20016;-91
2022/09/23 08:01:00;;;;;;;17.50;15.80;;;11.50;99.90;;;;;;6006055;23;20095;-90
2022/09/23 08:03:26;;;;;;;17.25;15.43;;;11.50;99.90;;;;;;6005920;23;20346;-90
2022/09/23 08:05:52;;;;;;;16.88;15.18;;;11.50;99.90;;;;;;6007670;23;20019;-91
2022/09/23 08:08:17;;;;;;;17.63;15.82;;;11.60;99.90;;;;;;5983080;23;20027;-91
2022/09/23 08:10:44;;;;;;;16.95;14.90;;;11.70;99.90;;;;;;6004090;23;20023;-92
2022/09/23 08:13:10;;;;;;;17.08;14.77;;;11.70;99.90;;;;;;6008209;23;20071;-91
2022/09/23 08:15:35;;;;;;;16.35;14.68;;;11.80;99.90;;;;;;6006110;23;20027;-90
2022/09/23 08:18:01;;;;;;;16.52;14.82;;;11.80;99.90;;;;;;6007549;23;20016;-90
2022/09/23 08:20:46;;;;;;;17.08;15.27;;;11.90;99.90;;;;;;6005476;23;20161;-90
2022/09/23 08:23:13;;;;;;;16.02;14.32;;;11.90;99.90;;;;;;6008714;23;20015;-92
2022/09/23 08:25:40;;;;;;;16.27;14.68;;;12.10;99.90;;;;;;6005704;23;20011;-91
2022/09/23 08:28:05;;;;;;;17.35;15.05;;;12.00;99.90;;;;;;6006066;23;20015;-89
2022/09/23 08:30:31;;;;;;;17.05;15.32;;;12.10;99.90;;;;;;6004679;23;20059;-90
2022/09/23 08:32:57;;;;;;;16.42;14.10;;;12.10;99.90;;;;;;6003961;23;20016;-89
2022/09/23 08:35:23;;;;;;;17.27;15.27;;;12.20;99.90;;;;;;6004588;23;20019;-90
2022/09/23 08:37:49;;;;;;;17.13;15.35;;;12.20;99.90;;;;;;6003194;23;20024;-89
2022/09/23 08:40:15;;;;;;;16.38;14.73;;;12.30;99.90;;;;;;6003963;23;20350;-89
2022/09/23 08:42:44;;;;;;;15.02;13.35;;;12.30;99.90;;;;;;6005448;23;20076;-88
2022/09/23 08:45:23;;;;;;;17.05;13.98;;;12.40;99.90;;;;;;6005629;23;20022;-89
2022/09/23 08:48:05;;;;;;;16.23;14.52;;;12.50;99.90;;;;;;6004572;23;20019;-90
2022/09/23 08:50:44;;;;;;;;;;;12.50;99.90;;;;;;6007254;23;20452;-89
2022/09/23 08:53:25;;;;;;;15.05;13.52;;;12.50;99.90;;;;;;6005742;23;20334;-91
2022/09/23 08:55:53;;;;;;;15.88;14.18;;;12.70;99.90;;;;;;6004171;23;20042;-90
2022/09/23 08:58:42;;;;;;;16.90;14.60;;;12.80;99.90;;;;;;6006685;23;20023;-90
2022/09/23 09:01:26;;;;;;;16.20;14.50;;;12.90;99.90;;;;;;6004900;23;20043;-89
2022/09/23 09:03:57;;;;;;;15.88;14.27;;;13.00;99.90;;;;;;6004233;23;20023;-90
2022/09/23 09:06:33;;;;;;;15.35;13.77;;;13.10;99.90;;;;;;6005013;23;20024;-89
2022/09/23 09:09:01;;;;;;;16.30;14.05;;;13.20;99.90;;;;;;6003698;23;20034;-88
2022/09/23 09:11:37;;;;;;;15.13;13.63;;;13.30;99.90;;;;;;6005491;23;20020;-89
2022/09/23 09:14:23;;;;;;;15.27;13.68;;;13.30;99.90;;;;;;6006279;23;20016;-89
2022/09/23 09:17:03;;;;;;;15.15;13.60;;;13.40;99.90;;;;;;5975586;23;20051;-89
2022/09/23 09:19:51;;;;;;;15.77;14.00;;;13.50;99.90;;;;;;6005098;23;20022;-91
2022/09/23 09:22:28;;;;;;;19.00;14.65;;;13.60;99.90;;;;;;6005255;23;20120;-90
2022/09/23 09:24:57;;;;;;;16.10;14.30;;;13.60;99.90;;;;;;6001037;23;20027;-88
2022/09/23 09:27:23;;;;;;;15.32;13.35;;;13.80;99.90;;;;;;5979105;23;20015;-90
2022/09/23 09:29:52;;;;;;;19.88;14.02;;;13.80;99.90;;;;;;6006110;23;20522;-92
2022/09/23 09:32:45;;;;;;;16.25;14.02;;;14.00;99.90;;;;;;6003376;23;20026;-91
2022/09/23 09:35:49;;;;;;;15.13;13.13;;;14.10;99.90;;;;;;5982664;23;20020;-94
2022/09/23 09:38:15;;;;;;;14.68;12.60;;;14.20;99.90;;;;;;5954555;23;20027;-94
2022/09/23 09:40:45;;;;;;;17.67;13.20;;;14.20;99.90;;;;;;6005925;23;20402;-93
2022/09/23 09:43:22;;;;;;;14.18;12.68;;;14.40;99.90;;;;;;5984315;23;20011;-94
2022/09/23 09:46:21;;;;;;;14.23;12.25;;;14.50;99.90;;;;;;6007447;23;20429;-94
2022/09/23 09:49:00;;;;;;;16.20;13.25;;;14.50;99.90;;;;;;5930246;24;20027;-94
2022/09/23 09:51:28;;;;;;;14.73;12.68;;;14.60;99.90;;;;;;5976030;24;20057;-94
2022/09/23 09:54:13;;;;;;;14.70;11.77;;;14.60;99.90;;;;;;5929507;24;20027;-94
2022/09/23 09:56:40;;;;;;;14.30;11.68;;;14.80;99.90;;;;;;5951419;24;20024;-94
2022/09/23 09:59:15;;;;;;;13.90;12.40;;;14.90;99.90;;;;;;5954030;24;20111;-94
2022/09/23 10:01:41;;;;;;;13.27;11.80;;;15.00;99.90;;;;;;5931756;24;20023;-94
2022/09/23 10:04:32;;;;;;;13.95;12.05;;;15.10;99.90;;;;;;5954266;24;20335;-96
2022/09/23 10:07:12;;;;;;;14.82;12.35;;;15.10;99.90;;;;;;5929266;24;20024;-96
2022/09/23 10:09:41;;;;;;;13.43;11.48;;;15.10;99.90;;;;;;5931091;24;20391;-95
2022/09/23 10:12:14;;;;;;;13.45;12.05;;;15.20;99.90;;;;;;5954351;24;20020;-94
2022/09/23 10:14:41;;;;;;;13.68;11.65;;;15.20;99.90;;;;;;5931628;24;20048;-94
2022/09/23 10:17:13;;;;;;;12.98;11.65;;;15.20;99.90;;;;;;5954020;24;20016;-92
2022/09/23 10:19:45;;;;;;;14.88;11.98;;;15.30;99.90;;;;;;5956798;24;20061;-93
2022/09/23 10:22:22;;;;;;;14.18;12.30;;;15.20;99.90;;;;;;5930844;24;20452;-94
2022/09/23 10:24:53;;;;;;;13.73;12.15;;;15.20;99.90;;;;;;5998660;23;20011;-94
2022/09/23 10:27:33;;;;;;;14.73;12.43;;;15.20;99.90;;;;;;5983140;23;20058;-95
2022/09/23 10:30:22;;;;;;;12.60;11.25;;;15.20;99.90;;;;;;5982161;23;20027;-95
2022/09/23 10:32:49;;;;;;;13.77;12.13;;;15.20;99.90;;;;;;5983502;23;20019;-95
2022/09/23 10:35:21;;;;;;;16.42;12.15;;;15.20;99.90;;;;;;5983587;23;20724;-96
2022/09/23 10:37:51;;;;;;;14.60;12.35;;;15.20;99.90;;;;;;5983463;23;20044;-95
2022/09/23 10:49:11;;;;;;;14.60;11.88;;;15.40;99.90;;;;;;6007570;23;20024;-95
2022/09/23 10:52:13;;;;;;;17.45;12.68;;;15.40;99.90;;;;;;5983712;23;20071;-96
2022/09/23 10:55:09;;;;;;;15.32;12.15;;;15.50;99.90;;;;;;5984782;23;20023;-95
2022/09/23 10:57:48;;;;;;;14.02;12.15;;;15.50;99.90;;;;;;6004886;23;20019;-94
2022/09/23 11:00:22;;;;;;;15.07;13.13;;;15.50;99.90;;;;;;5982369;23;20027;-95
2022/09/23 11:03:30;;;;;;;15.02;12.52;;;15.50;99.90;;;;;;5984411;23;20023;-96
2022/09/23 11:06:17;;;;;;;15.48;13.00;;;15.40;99.90;;;;;;5999906;23;20019;-93
2022/09/23 11:08:49;;;;;;;17.73;12.98;;;15.40;99.90;;;;;;5983607;23;20371;-95
2022/09/23 11:11:39;;;;;;;15.63;13.07;;;15.40;99.90;;;;;;6007000;23;20012;-94
2022/09/23 11:14:18;;;;;;;15.38;12.50;;;15.40;99.90;;;;;;6008665;23;20026;-95
2022/09/23 11:17:04;;;;;;;13.25;11.43;;;15.40;99.90;;;;;;6007562;23;20020;-92
2022/09/23 11:20:08;;;;;;;16.58;13.55;;;15.40;99.90;;;;;;5981159;23;20346;-93
2022/09/23 11:22:55;;;;;;;14.02;12.43;;;15.40;99.90;;;;;;6003300;23;20030;-93
2022/09/23 11:25:56;;;;;;;15.75;12.90;;;15.40;99.90;;;;;;6004921;23;20016;-94
2022/09/23 11:28:44;;;;;;;14.93;13.10;;;15.40;99.90;;;;;;6008289;23;20019;-94
2022/09/23 11:31:23;;;;;;;14.25;12.48;;;15.40;99.90;;;;;;6009007;23;20098;-94
2022/09/23 11:34:04;;;;;;;13.73;12.02;;;15.40;99.90;;;;;;6009581;23;20464;-93
2022/09/23 11:36:45;;;;;;;15.95;12.50;;;15.50;99.90;;;;;;5982614;23;20173;-92
2022/09/23 11:39:22;;;;;;;14.60;12.88;;;15.50;99.90;;;;;;6009016;23;20015;-92
2022/09/23 11:41:52;;;;;;;15.32;13.73;;;15.60;99.90;;;;;;6008048;23;20022;-91
2022/09/23 11:44:27;;;;;;;14.57;12.55;;;15.60;99.90;;;;;;6007437;23;20450;-92
2022/09/23 11:46:56;;;;;;;14.75;12.73;;;15.60;99.90;;;;;;5984937;23;20450;-94
2022/09/23 11:49:28;;;;;;;13.38;11.93;;;15.60;99.90;;;;;;6007830;23;20027;-94
2022/09/23 11:52:18;;;;;;;14.93;13.32;;;15.70;99.90;;;;;;6008993;23;20031;-93
2022/09/23 11:54:48;;;;;;;15.07;11.82;;;15.70;99.90;;;;;;6008654;23;20020;-93
2022/09/23 11:57:36;;;;;;;13.68;12.27;;;15.60;99.90;;;;;;6009463;23;20045;-94
2022/09/23 12:00:26;;;;;;;14.30;12.75;;;15.70;99.90;;;;;;5986782;23;20012;-95
2022/09/23 12:03:17;;;;;;;14.10;12.55;;;15.70;99.90;;;;;;6009241;23;20066;-95
2022/09/23 12:06:31;;;;;;;14.30;12.80;;;15.70;99.90;;;;;;5985019;23;20019;-93
2022/09/23 12:09:02;;;;;;;15.45;12.73;;;15.70;99.90;;;;;;5978349;23;20256;-94
2022/09/23 12:11:35;;;;;;;;;;;15.80;99.90;;;;;;5986058;23;20018;-95
2022/09/23 12:14:23;;;;;;;14.75;12.63;;;15.70;99.90;;;;;;5986085;23;19918;-93
2022/09/23 12:17:01;;;;;;;14.45;12.73;;;15.80;99.90;;;;;;6007798;23;20015;-94
2022/09/23 12:19:58;;;;;;;14.10;12.70;;;15.90;99.90;;;;;;5986012;23;20020;-94
2022/09/23 12:22:35;;;;;;;14.98;12.52;;;15.90;99.90;;;;;;5985223;23;20100;-93
2022/09/23 12:25:11;;;;;;;14.43;12.93;;;15.90;99.90;;;;;;5985542;23;20094;-94
2022/09/23 12:27:44;;;;;;;15.57;13.20;;;16.00;99.90;;;;;;6009845;23;20155;-94
2022/09/23 12:30:15;;;;;;;14.80;13.25;;;16.00;99.90;;;;;;5985823;23;20042;-95
2022/09/23 12:32:41;;;;;;;14.52;12.98;;;16.00;99.90;;;;;;6009030;23;20020;-94
2022/09/23 12:35:21;;;;;;;14.50;13.00;;;15.90;99.90;;;;;;5984850;23;20019;-94
2022/09/23 12:37:47;;;;;;;14.85;12.93;;;16.00;99.90;;;;;;6007297;23;20079;-95
2022/09/23 12:40:29;;;;;;;16.33;14.07;;;16.00;99.90;;;;;;6008795;23;20152;-93
2022/09/23 12:42:58;;;;;;;16.83;13.48;;;16.00;99.90;;;;;;6007807;23;20011;-95
2022/09/23 12:45:36;;;;;;;15.27;13.68;;;16.10;99.90;;;;;;5985016;23;20052;-95
2022/09/23 12:48:26;;;;;;;14.75;13.20;;;15.90;99.90;;;;;;5985083;23;20015;-95
2022/09/23 12:51:11;;;;;;;15.33;13.70;;;16.00;99.90;;;;;;6003672;23;20123;-94
2022/09/23 12:54:13;;;;;;;14.98;13.50;;;15.80;99.90;;;;;;5984482;23;20387;-94
2022/09/23 12:56:38;;;;;;;15.50;13.90;;;16.00;99.90;;;;;;5984890;23;20015;-95
2022/09/23 12:59:12;;;;;;;15.82;14.18;;;15.90;99.90;;;;;;6009286;23;20020;-94
2022/09/23 13:01:39;;;;;;;15.75;13.95;;;16.00;99.90;;;;;;5984189;23;20354;-93
2022/09/23 13:06:52;;;;;;;15.20;13.70;;;16.00;99.90;;;;;;6007709;23;20392;-95
2022/09/23 13:09:27;;;;;;;15.90;14.20;;;16.00;99.90;;;;;;5984280;23;20390;-94
2022/09/23 13:12:04;;;;;;;15.77;14.13;;;16.00;99.90;;;;;;5984205;23;20019;-94
2022/09/23 13:14:32;;;;;;;15.80;13.77;;;16.00;99.90;;;;;;5983062;23;20016;-95